Pagrindinis puslapis
METAR-TAF:

METAR-TAF

Oro uostai :

Donau

Neuburg, Vokietija

platuma: 48-43N, ilguma: 011-13E, Aukštis: 380 m

Dabartinis oras

Ataskaita buvo paskelbta 56 minutes, ne 22:20 UTC
Vėjas 3 kt iš Šiaurės/Šiaurės Rytų
Temperatūra 7°C
Drėgmė 61%
Slėgis 1017 hPa
Matomumas 10 km arba daugiau
Išsisklaidę debesys ne aukštis 6500 ft

METAR: ETSN 282220Z 02003KT 9999 SCT065 07/00 Q1017 BLU+

Laikas: 00:16 (23:16 UTC)

Prognozė

Ataskaita buvo paskelbta 3 valandos ir 16 minutes, ne 20:00 UTC
Prognozė galioja nuo 28 metu 21 UTC su 29 metu 06 UTC
Vėjas 5 kt iš Šiaurės
Matomumas 10 km arba daugiau
Mažai debesys ne aukštis 7000 ft

TAF: ETSN 282000Z 2821/2906 35005KT 9999 NSW FEW070 BY ETGL

Orai ataskaitas ir orų prognozės (METAR, TAF).

turimą stotys yra geltonos ir raudonos taškus žemėlapyje.

Perkelti pele per norėdami pamatyti stoties vardą.

Tada spustelėkite, norėdami matyti oro stebėjimo ir prognozės.

Norėdami pakeisti žemėlapį: spustelėkite ant žalios mygtukų su juodo kryžiaus žemyn,; žalią mygtuką su brūkšneliu, jei norite nutolinti; arba žalių rodyklių gretimoms žemėlapius.


METAR-TAF: